Time;durP1;ratioP1;P1;durP2;ratioP2;P2;SDS_P1;SDS_P2;PMS_P1;PMS_P2;Temp;Humidity;BMP_temperature;BMP_pressure;BME280_temperature;BME280_humidity;BME280_pressure;Samples;Min_cycle;Max_cycle;Signal;HPM_P1;HPM_P2
2023/05/30 00:01:00;;;;;;;;;;;11.80;99.90;;;;;;6125671;23;20357;-76
2023/05/30 00:03:26;;;;;;;;;;;11.40;99.90;;;;;;6125183;23;19921;-75
2023/05/30 00:05:52;;;;;;;;;;;11.30;99.90;;;;;;6125868;23;19929;-76
2023/05/30 00:08:20;;;;;;;;;;;11.30;99.90;;;;;;6129327;23;19949;-75
2023/05/30 00:10:45;;;;;;;;;;;11.30;99.90;;;;;;6134108;23;20333;-75
2023/05/30 00:13:12;;;;;;;;;;;11.30;99.90;;;;;;6124888;23;20330;-75
2023/05/30 00:15:41;;;;;;;;;;;11.30;99.90;;;;;;6125803;23;19920;-75
2023/05/30 00:18:07;;;;;;;;;;;11.30;99.90;;;;;;6126245;23;19921;-75
2023/05/30 00:20:33;;;;;;;;;;;11.30;99.90;;;;;;6127940;23;19992;-75
2023/05/30 00:22:59;;;;;;;;;;;11.20;99.90;;;;;;6125499;23;19952;-75
2023/05/30 00:25:24;;;;;;;;;;;11.40;99.90;;;;;;6124994;23;19921;-75
2023/05/30 00:27:56;;;;;;;;;;;11.20;99.90;;;;;;6127069;23;20245;-75
2023/05/30 00:30:22;;;;;;;;;;;11.20;99.90;;;;;;6125505;23;19928;-76
2023/05/30 00:32:48;;;;;;;;;;;11.30;99.90;;;;;;6100229;23;19921;-75
2023/05/30 00:35:14;;;;;;;;;;;11.30;99.90;;;;;;6101182;23;19921;-75
2023/05/30 00:37:39;;;;;;;;;;;11.30;99.90;;;;;;6100569;23;19921;-73
2023/05/30 00:40:06;;;;;;;;;;;11.50;99.90;;;;;;6100054;23;19925;-75
2023/05/30 00:42:32;;;;;;;;;;;11.20;99.90;;;;;;6101152;23;19921;-75
2023/05/30 00:44:57;;;;;;;;;;;11.20;99.90;;;;;;6126378;23;19928;-75
2023/05/30 00:47:23;;;;;;;;;;;11.10;99.90;;;;;;6100179;23;20055;-75
2023/05/30 00:49:49;;;;;;;;;;;11.10;99.90;;;;;;6127179;23;19921;-75
2023/05/30 00:52:15;;;;;;;;;;;11.20;99.90;;;;;;6100079;23;20417;-75
2023/05/30 00:54:43;;;;;;;;;;;11.10;99.90;;;;;;6100921;23;19972;-75
2023/05/30 00:57:09;;;;;;;;;;;11.10;99.90;;;;;;6099996;23;19921;-75
2023/05/30 00:59:35;;;;;;;;;;;11.10;99.90;;;;;;6125835;23;19927;-75
2023/05/30 01:02:00;;;;;;;;;;;11.10;99.90;;;;;;6100707;23;19957;-75
2023/05/30 01:04:29;;;;;;;;;;;11.10;99.90;;;;;;6127126;23;19930;-75
2023/05/30 01:06:55;;;;;;;;;;;11.10;99.90;;;;;;6099830;23;19928;-75
2023/05/30 01:09:21;;;;;;;;;;;11.10;99.90;;;;;;6100819;23;19921;-75
2023/05/30 01:11:49;;;;;;;;;;;11.10;99.90;;;;;;6127173;23;19976;-75
2023/05/30 01:14:18;;;;;;;;;;;11.10;99.90;;;;;;6126010;23;19924;-75
2023/05/30 01:16:45;;;;;;;;;;;11.10;99.90;;;;;;6100710;23;19924;-75
2023/05/30 01:19:27;;;;;;;;;;;11.10;99.90;;;;;;6100231;23;19921;-76
2023/05/30 01:21:59;;;;;;;;;;;11.10;99.90;;;;;;6126230;23;20301;-75
2023/05/30 01:24:32;;;;;;;;;;;11.10;99.90;;;;;;6100358;23;19928;-75
2023/05/30 01:27:06;;;;;;;;;;;11.10;99.90;;;;;;6126625;23;19921;-75
2023/05/30 01:29:33;;;;;;;;;;;11.20;99.90;;;;;;6100075;23;19921;-75
2023/05/30 01:31:59;;;;;;;;;;;11.20;99.90;;;;;;6126008;23;19921;-75
2023/05/30 01:34:25;;;;;;;;;;;11.10;99.90;;;;;;6126174;23;19945;-75
2023/05/30 01:36:51;;;;;;;;;;;11.20;99.90;;;;;;6099598;23;20352;-75
2023/05/30 01:39:16;;;;;;;;;;;11.70;99.90;;;;;;6125783;23;19924;-76
2023/05/30 01:41:45;;;;;;;;;;;11.70;99.90;;;;;;6099818;23;20340;-76
2023/05/30 01:44:31;;;;;;;;;;;11.20;99.90;;;;;;6100049;23;19921;-75
2023/05/30 01:47:04;;;;;;;;;;;11.20;99.90;;;;;;6124403;23;20245;-76
2023/05/30 01:49:33;;;;;;;;;;;11.20;99.90;;;;;;6099288;23;19952;-75
2023/05/30 01:51:58;;;;;;;;;;;11.10;99.90;;;;;;6125953;23;19920;-75
2023/05/30 01:54:24;;;;;;;;;;;11.20;99.90;;;;;;6126461;23;19927;-76
2023/05/30 01:56:54;;;;;;;;;;;11.20;99.90;;;;;;6099516;23;19929;-76
2023/05/30 01:59:20;;;;;;;;;;;11.20;99.90;;;;;;6126524;23;19964;-76
2023/05/30 02:01:46;;;;;;;;;;;11.20;99.90;;;;;;6126328;23;19921;-75
2023/05/30 02:04:15;;;;;;;;;;;11.20;99.90;;;;;;6099768;23;20297;-76
2023/05/30 02:06:40;;;;;;;;;;;11.20;99.90;;;;;;6126675;23;19921;-74
2023/05/30 02:09:06;;;;;;;;;;;11.20;99.90;;;;;;6099515;23;19995;-76
2023/05/30 02:11:31;;;;;;;;;;;11.20;99.90;;;;;;6125976;23;19921;-76
2023/05/30 02:14:00;;;;;;;;;;;11.10;99.90;;;;;;6100225;23;20385;-75
2023/05/30 02:16:26;;;;;;;;;;;11.20;99.90;;;;;;6100170;23;20344;-75
2023/05/30 02:18:52;;;;;;;;;;;11.20;99.90;;;;;;6099335;23;19952;-76
2023/05/30 02:21:18;;;;;;;;;;;11.20;99.90;;;;;;6126905;23;19956;-76
2023/05/30 02:23:44;;;;;;;;;;;11.30;99.90;;;;;;6099639;23;19925;-75
2023/05/30 02:26:10;;;;;;;;;;;11.20;99.90;;;;;;6126215;23;19944;-76
2023/05/30 02:28:35;;;;;;;;;;;11.60;99.90;;;;;;6100246;23;20353;-76
2023/05/30 02:31:01;;;;;;;;;;;11.20;99.90;;;;;;6125022;23;19928;-76
2023/05/30 02:33:27;;;;;;;;;;;11.20;99.90;;;;;;6100465;23;19921;-76
2023/05/30 02:35:52;;;;;;;;;;;11.20;99.90;;;;;;6125965;23;19920;-76
2023/05/30 02:38:18;;;;;;;;;;;11.20;99.90;;;;;;6099165;23;19921;-75
2023/05/30 02:40:43;;;;;;;;;;;11.20;99.90;;;;;;6100150;23;19925;-76
2023/05/30 02:43:18;;;;;;;;;;;11.20;99.90;;;;;;6099966;23;19927;-76
2023/05/30 02:45:46;;;;;;;;;;;11.20;99.90;;;;;;6099662;23;19929;-76
2023/05/30 02:48:12;;;;;;;;;;;11.30;99.90;;;;;;6126469;23;19927;-76
2023/05/30 02:50:37;;;;;;;;;;;11.30;99.90;;;;;;6100450;23;20003;-74
2023/05/30 02:53:03;;;;;;;;;;;11.20;99.90;;;;;;6099875;23;19925;-75
2023/05/30 02:55:29;;;;;;;;;;;11.20;99.90;;;;;;6127066;23;19921;-75
2023/05/30 03:01:23;;;;;;;;;;;11.20;99.90;;;;;;6157554;23;19916;-72
2023/05/30 03:03:49;;;;;;;;;;;11.30;99.90;;;;;;6157660;23;19924;-73
2023/05/30 03:06:18;;;;;;;;;;;11.30;99.90;;;;;;6132809;23;19944;-72
2023/05/30 03:09:05;;;;;;;;;;;11.40;99.90;;;;;;6161228;23;19920;-72
2023/05/30 03:25:10;;;;;;;;;;;10.60;99.90;;;;;;6163218;23;19915;-75
2023/05/30 03:27:36;;;;;;;;;;;11.10;99.90;;;;;;6160668;23;19999;-75
2023/05/30 03:30:02;;;;;;;;;;;11.30;99.90;;;;;;6134114;23;20326;-75
2023/05/30 03:32:37;;;;;;;;;;;11.30;99.90;;;;;;6135199;23;19959;-75
2023/05/30 03:37:37;;;;;;;;;;;11.30;99.90;;;;;;6186649;23;19921;-75
2023/05/30 03:40:08;;;;;;;;;;;11.30;99.90;;;;;;6159582;23;19927;-75
2023/05/30 03:43:02;;;;;;;;;;;11.30;99.90;;;;;;6186559;23;20304;-74
2023/05/30 03:45:28;;;;;;;;;;;11.40;99.90;;;;;;6187093;23;19920;-74
2023/05/30 03:51:33;;;;;;;;;;;11.40;99.90;;;;;;6184968;23;19924;-75
2023/05/30 03:53:58;;;;;;;;;;;11.30;99.90;;;;;;6186326;23;20020;-75
2023/05/30 03:56:25;;;;;;;;;;;11.40;99.90;;;;;;6186544;23;19991;-75
2023/05/30 03:58:51;;;;;;;;;;;11.40;99.90;;;;;;6186898;23;19921;-75
2023/05/30 04:01:27;;;;;;;;;;;11.40;99.90;;;;;;6159923;23;19927;-75
2023/05/30 04:03:53;;;;;;;;;;;11.40;99.90;;;;;;6159029;23;20308;-75
2023/05/30 04:06:18;;;;;;;;;;;11.40;99.90;;;;;;6186354;23;19967;-75
2023/05/30 04:08:44;;;;;;;;;;;12.20;99.90;;;;;;6160116;23;19916;-75
2023/05/30 04:11:10;;;;;;;;;;;11.50;99.90;;;;;;6159365;23;20316;-75
2023/05/30 04:13:35;;;;;;;;;;;11.50;99.90;;;;;;6186264;23;19928;-75
2023/05/30 04:16:01;;;;;;;;;;;11.50;99.90;;;;;;6159198;23;19923;-75
2023/05/30 04:18:26;;;;;;;;;;;11.50;99.90;;;;;;6184216;23;19995;-76
2023/05/30 04:20:52;;;;;;;;;;;11.60;99.90;;;;;;6186714;23;19916;-76
2023/05/30 04:23:18;;;;;;;;;;;11.50;99.90;;;;;;6159118;23;19927;-74
2023/05/30 04:25:44;;;;;;;;;;;11.50;99.90;;;;;;6186702;23;19920;-74
2023/05/30 04:28:12;;;;;;;;;;;11.60;99.90;;;;;;6186278;23;19916;-75
2023/05/30 04:30:40;;;;;;;;;;;11.60;99.90;;;;;;6184033;23;19924;-75
2023/05/30 04:33:05;;;;;;;;;;;11.60;99.90;;;;;;6158859;23;19924;-75
2023/05/30 04:35:32;;;;;;;;;;;11.60;99.90;;;;;;6159460;23;20301;-76
2023/05/30 04:37:58;;;;;;;;;;;11.60;99.90;;;;;;6158377;23;20299;-74
2023/05/30 04:40:25;;;;;;;;;;;11.70;99.90;;;;;;6185692;23;19916;-74
2023/05/30 04:42:51;;;;;;;;;;;11.70;99.90;;;;;;6158653;23;19924;-77
2023/05/30 04:45:18;;;;;;;;;;;11.70;99.90;;;;;;6184678;23;20391;-78
2023/05/30 04:47:47;;;;;;;;;;;11.70;99.90;;;;;;6158574;23;19924;-77
2023/05/30 04:50:16;;;;;;;;;;;11.70;99.90;;;;;;6184766;23;19924;-75
2023/05/30 04:52:42;;;;;;;;;;;11.70;99.90;;;;;;6158183;23;20016;-80
2023/05/30 04:55:12;;;;;;;;;;;11.70;99.90;;;;;;6185327;23;19979;-80
2023/05/30 04:57:40;;;;;;;;;;;11.70;99.90;;;;;;6158296;23;19920;-77
2023/05/30 05:00:13;;;;;;;;;;;11.70;99.90;;;;;;6157496;23;19958;-82
2023/05/30 05:02:40;;;;;;;;;;;11.70;99.90;;;;;;6185817;23;20305;-79
2023/05/30 05:05:06;;;;;;;;;;;11.60;99.90;;;;;;6158638;23;20396;-83
2023/05/30 05:07:32;;;;;;;;;;;11.60;99.90;;;;;;6184930;23;19959;-82
2023/05/30 05:10:00;;;;;;;;;;;11.60;99.90;;;;;;6186078;23;19928;-82
2023/05/30 05:12:26;;;;;;;;;;;12.10;99.90;;;;;;6185625;23;19920;-85
2023/05/30 05:14:53;;;;;;;;;;;11.70;99.90;;;;;;6159434;23;20347;-81
2023/05/30 05:17:18;;;;;;;;;;;11.80;99.90;;;;;;6185726;23;20329;-80
2023/05/30 05:19:44;;;;;;;;;;;11.60;99.90;;;;;;6185551;23;20012;-79
2023/05/30 05:22:10;;;;;;;;;;;11.60;99.90;;;;;;6158567;23;19971;-82
2023/05/30 05:24:35;;;;;;;;;;;11.70;99.90;;;;;;6158389;23;19935;-79
2023/05/30 05:27:01;;;;;;;;;;;11.70;99.90;;;;;;6157667;23;20039;-79
2023/05/30 05:29:26;;;;;;;;;;;11.70;99.90;;;;;;6159133;23;19920;-82
2023/05/30 05:31:52;;;;;;;;;;;11.70;99.90;;;;;;6184171;23;19933;-77
2023/05/30 05:34:17;;;;;;;;;;;11.70;99.90;;;;;;6184300;23;20399;-77
2023/05/30 05:36:43;;;;;;;;;;;11.80;99.90;;;;;;6158927;23;19920;-78
2023/05/30 05:39:09;;;;;;;;;;;11.80;99.90;;;;;;6185216;23;19966;-81
2023/05/30 05:41:35;;;;;;;;;;;11.80;99.90;;;;;;6158834;23;19921;-77
2023/05/30 05:44:01;;;;;;;;;;;11.80;99.90;;;;;;6158228;23;19920;-78
2023/05/30 05:46:26;;;;;;;;;;;12.40;99.90;;;;;;6185534;23;19920;-78
2023/05/30 05:48:54;;;;;;;;;;;11.80;99.90;;;;;;6184894;23;20218;-78
2023/05/30 05:51:20;;;;;;;;;;;11.80;99.90;;;;;;6159560;23;19920;-78
2023/05/30 05:53:48;;;;;;;;;;;11.80;99.90;;;;;;6185579;23;20333;-77
2023/05/30 05:56:14;;;;;;;;;;;12.10;99.90;;;;;;6185609;23;20252;-78
2023/05/30 05:58:39;;;;;;;;;;;11.80;99.90;;;;;;6159603;23;19920;-78
2023/05/30 06:01:05;;;;;;;;;;;11.90;99.90;;;;;;6185804;23;20234;-78
2023/05/30 06:03:30;;;;;;;;;;;11.90;99.90;;;;;;6185233;23;19927;-78
2023/05/30 06:05:56;;;;;;;;;;;11.90;99.90;;;;;;6185786;23;19920;-78
2023/05/30 06:08:22;;;;;;;;;;;12.00;99.90;;;;;;6185775;23;19921;-78
2023/05/30 06:10:47;;;;;;;;;;;12.00;99.90;;;;;;6184824;23;19999;-78
2023/05/30 06:13:14;;;;;;;;;;;12.10;99.90;;;;;;6185830;23;19927;-78
2023/05/30 06:15:39;;;;;;;;;;;12.10;99.90;;;;;;6158582;23;19947;-79
2023/05/30 06:18:05;;;;;;;;;;;12.10;99.90;;;;;;6185137;23;19970;-78
2023/05/30 06:20:30;;;;;;;;;;;12.20;99.90;;;;;;6185761;23;19921;-78
2023/05/30 06:22:56;;;;;;;;;;;12.20;99.90;;;;;;6184698;23;19927;-78
2023/05/30 06:25:21;;;;;;;;;;;12.20;99.90;;;;;;6185966;23;19991;-78
2023/05/30 06:27:47;;;;;;;;;;;12.20;99.90;;;;;;6185531;23;19920;-79
2023/05/30 06:30:13;;;;;;;;;;;12.40;99.90;;;;;;6184034;23;19928;-79
2023/05/30 06:32:39;;;;;;;;;;;12.20;99.90;;;;;;6185194;23;20013;-79
2023/05/30 06:35:05;;;;;;;;;;;12.20;99.90;;;;;;6184682;23;19928;-81
2023/05/30 06:37:33;;;;;;;;;;;12.30;99.90;;;;;;6159466;23;19920;-82
2023/05/30 06:39:59;;;;;;;;;;;12.30;99.90;;;;;;6186029;23;19920;-77
2023/05/30 06:42:28;;;;;;;;;;;12.30;99.90;;;;;;6158877;23;19977;-79
2023/05/30 06:44:56;;;;;;;;;;;12.20;99.90;;;;;;6158022;23;19970;-78
2023/05/30 06:47:22;;;;;;;;;;;12.60;99.90;;;;;;6185997;23;19920;-76
2023/05/30 06:49:47;;;;;;;;;;;12.20;99.90;;;;;;6158517;23;19927;-79
2023/05/30 06:52:13;;;;;;;;;;;12.20;99.90;;;;;;6185330;23;19924;-80
2023/05/30 06:54:39;;;;;;;;;;;12.20;99.90;;;;;;6160608;23;19944;-78
2023/05/30 06:57:04;;;;;;;;;;;12.10;99.90;;;;;;6186385;23;19927;-78
2023/05/30 06:59:30;;;;;;;;;;;12.10;99.90;;;;;;6160523;23;19921;-77
2023/05/30 07:01:56;;;;;;;;;;;12.10;99.90;;;;;;6160931;23;19924;-79
2023/05/30 07:04:46;;;;;;;;;;;12.10;99.90;;;;;;6182360;23;19936;-80
2023/05/30 07:07:11;;;;;;;;;;;12.20;99.90;;;;;;6131314;23;19928;-77
2023/05/30 07:09:37;;;;;;;;;;;12.20;99.90;;;;;;6133279;23;19920;-85
2023/05/30 07:12:03;;;;;;;;;;;12.60;99.90;;;;;;6134270;23;19927;-85
2023/05/30 07:14:28;;;;;;;;;;;12.20;99.90;;;;;;6136142;23;19931;-86
2023/05/30 07:16:54;;;;;;;;;;;12.30;99.90;;;;;;6135702;23;19921;-85
2023/05/30 07:19:22;;;;;;;;;;;12.20;99.90;;;;;;6135526;23;19920;-84
2023/05/30 07:21:48;;;;;;;;;;;12.20;99.90;;;;;;6133410;23;19943;-82
2023/05/30 07:24:15;;;;;;;;;;;12.30;99.90;;;;;;6132280;23;20337;-80
2023/05/30 07:26:41;;;;;;;;;;;12.30;99.90;;;;;;6131220;23;20431;-80
2023/05/30 07:29:06;;;;;;;;;;;12.40;99.90;;;;;;6131378;23;19921;-80
2023/05/30 07:31:32;;;;;;;;;;;12.40;99.90;;;;;;6131386;23;19921;-78
2023/05/30 07:33:57;;;;;;;;;;;12.50;99.90;;;;;;6130300;23;20352;-77
2023/05/30 07:36:23;;;;;;;;;;;12.50;99.90;;;;;;6157313;23;19921;-84
2023/05/30 07:38:49;;;;;;;;;;;12.50;99.90;;;;;;6130329;23;19955;-78
2023/05/30 07:41:14;;;;;;;;;;;12.50;99.90;;;;;;6156552;23;19928;-81
2023/05/30 07:43:40;;;;;;;;;;;12.50;99.90;;;;;;6157518;23;20336;-75
2023/05/30 07:46:05;;;;;;;;;;;12.50;99.90;;;;;;6157034;23;19921;-78
2023/05/30 07:48:31;;;;;;;;;;;12.70;99.90;;;;;;6130559;23;19927;-77
2023/05/30 07:50:56;;;;;;;;;;;13.00;99.90;;;;;;6130607;23;19921;-77
2023/05/30 07:53:22;;;;;;;;;;;13.20;99.90;;;;;;6131256;23;20257;-78
2023/05/30 07:55:50;;;;;;;;;;;13.30;99.90;;;;;;6129578;23;19924;-79
2023/05/30 07:58:16;;;;;;;;;;;13.30;99.90;;;;;;6130699;23;19921;-78
2023/05/30 08:00:41;;;;;;;;;;;13.30;99.90;;;;;;6157243;23;20351;-78
2023/05/30 08:03:07;;;;;;;;;;;13.40;99.90;;;;;;6156449;23;19932;-79
2023/05/30 08:05:34;;;;;;;;;;;13.90;99.90;;;;;;6156837;23;19921;-78
2023/05/30 08:07:59;;;;;;;;;;;14.20;99.90;;;;;;6156250;23;19925;-78
2023/05/30 08:10:25;;;;;;;;;;;14.50;99.90;;;;;;6130465;23;19920;-78
2023/05/30 08:12:50;;;;;;;;;;;14.40;99.90;;;;;;6155981;23;20333;-78
2023/05/30 08:15:16;;;;;;;;;;;14.40;99.90;;;;;;6157040;23;19943;-77
2023/05/30 08:17:43;;;;;;;;;;;14.00;99.90;;;;;;6156424;23;19924;-78
2023/05/30 08:20:08;;;;;;;;;;;14.00;99.90;;;;;;6130107;23;20174;-79
2023/05/30 08:22:34;;;;;;;;;;;13.90;99.90;;;;;;6130198;23;19987;-80
2023/05/30 08:25:00;;;;;;;;;;;13.90;99.90;;;;;;6156964;23;19983;-80
2023/05/30 08:27:26;;;;;;;;;;;14.20;99.90;;;;;;6130660;23;20393;-80
2023/05/30 08:29:52;;;;;;;;;;;14.90;99.90;;;;;;6155845;23;19920;-79
2023/05/30 08:32:17;;;;;;;;;;;15.50;99.90;;;;;;6156773;23;19975;-75
2023/05/30 08:34:46;;;;;;;;;;;15.40;99.90;;;;;;6156440;23;19921;-75
2023/05/30 08:37:12;;;;;;;;;;;14.90;99.90;;;;;;6129194;23;20361;-74
2023/05/30 08:39:37;;;;;;;;;;;14.30;99.90;;;;;;6155943;23;19959;-74
2023/05/30 08:42:04;;;;;;;;;;;14.20;99.90;;;;;;6129890;23;20253;-71
2023/05/30 08:44:30;;;;;;;;;;;14.10;99.90;;;;;;6129834;23;19924;-73
2023/05/30 08:46:59;;;;;;;;;;;14.10;99.90;;;;;;6130119;23;19921;-73
2023/05/30 08:49:27;;;;;;;;;;;14.10;99.90;;;;;;6130323;23;19920;-74
2023/05/30 08:51:55;;;;;;;;;;;14.30;99.90;;;;;;6154055;23;20387;-76
2023/05/30 08:54:25;;;;;;;;;;;14.50;99.90;;;;;;6156684;23;20297;-76
2023/05/30 08:57:01;;;;;;;;;;;14.90;99.90;;;;;;6129691;23;20293;-76
2023/05/30 08:59:27;;;;;;;;;;;16.20;99.90;;;;;;6156133;23;19927;-75
2023/05/30 09:01:53;;;;;;;;;;;17.60;99.90;;;;;;6130138;23;20241;-79
2023/05/30 09:04:19;;;;;;;;;;;18.50;99.90;;;;;;6156213;23;20334;-74
2023/05/30 09:06:45;;;;;;;;;;;18.60;99.90;;;;;;6154357;23;20043;-71
2023/05/30 09:09:13;;;;;;;;;;;18.20;99.90;;;;;;6156236;23;19991;-71
2023/05/30 09:11:39;;;;;;;;;;;17.70;99.90;;;;;;6155390;23;20285;-72
2023/05/30 09:14:05;;;;;;;;;;;17.20;99.90;;;;;;6129980;23;19971;-73
2023/05/30 09:16:30;;;;;;;;;;;16.70;99.90;;;;;;6129228;23;19921;-73
2023/05/30 09:18:56;;;;;;;;;;;16.40;99.90;;;;;;6154984;23;19921;-73
2023/05/30 09:21:21;;;;;;;;;;;16.00;99.90;;;;;;6155513;23;19916;-74
2023/05/30 09:23:48;;;;;;;;;;;15.90;99.90;;;;;;6155975;23;19990;-72
2023/05/30 09:26:14;;;;;;;;;;;15.00;99.90;;;;;;6129621;23;19920;-73
2023/05/30 09:28:41;;;;;;;;;;;15.50;99.90;;;;;;6130178;23;20257;-73
2023/05/30 09:31:09;;;;;;;;;;;15.30;99.90;;;;;;6129055;23;20368;-74
2023/05/30 09:33:44;;;;;;;;;;;15.30;99.90;;;;;;6128950;23;19973;-73
2023/05/30 09:36:18;;;;;;;;;;;15.30;99.90;;;;;;6129223;23;20265;-72
2023/05/30 09:38:54;;;;;;;;;;;15.30;99.90;;;;;;6129595;23;19968;-72
2023/05/30 09:41:20;;;;;;;;;;;15.10;99.90;;;;;;6155826;23;19920;-72
2023/05/30 09:43:53;;;;;;;;;;;15.00;99.90;;;;;;6130289;23;20007;-74
2023/05/30 09:46:23;;;;;;;;;;;14.90;99.90;;;;;;6130019;23;20039;-73
2023/05/30 09:48:49;;;;;;;;;;;14.90;99.90;;;;;;6129113;23;19921;-74
2023/05/30 09:51:15;;;;;;;;;;;14.80;99.90;;;;;;6156194;23;20313;-73
2023/05/30 09:53:52;;;;;;;;;;;14.80;99.90;;;;;;6156048;23;19953;-74
2023/05/30 09:56:18;;;;;;;;;;;14.90;99.90;;;;;;6129705;23;19976;-72
2023/05/30 09:58:43;;;;;;;;;;;15.70;99.90;;;;;;6155963;23;20289;-72
2023/05/30 10:01:14;;;;;;;;;;;16.70;99.90;;;;;;6129019;23;20400;-72
2023/05/30 10:03:41;;;;;;;;;;;17.70;99.90;;;;;;6130013;23;19947;-74
2023/05/30 10:06:16;;;;;;;;;;;17.90;99.90;;;;;;6123663;23;19921;-75
2023/05/30 10:08:44;;;;;;;;;;;17.80;99.90;;;;;;6125720;23;20401;-74
2023/05/30 10:11:09;;;;;;;;;;;17.50;99.90;;;;;;6126203;23;20373;-75
2023/05/30 10:13:36;;;;;;;;;;;17.30;99.90;;;;;;6124690;23;19946;-74
2023/05/30 10:16:02;;;;;;;;;;;17.10;99.90;;;;;;6123709;23;20400;-74
2023/05/30 10:18:29;;;;;;;;;;;17.00;99.90;;;;;;6126860;23;19925;-74
2023/05/30 10:20:56;;;;;;;;;;;17.00;99.90;;;;;;6125364;23;20353;-73
2023/05/30 10:23:21;;;;;;;;;;;16.90;99.90;;;;;;6125993;23;19924;-74
2023/05/30 10:25:49;;;;;;;;;;;16.90;99.90;;;;;;6124496;23;19921;-74
2023/05/30 10:28:18;;;;;;;;;;;16.80;99.90;;;;;;6124776;23;19996;-75
2023/05/30 10:30:44;;;;;;;;;;;16.80;99.90;;;;;;6125956;23;19921;-77
2023/05/30 10:33:09;;;;;;;;;;;16.80;99.90;;;;;;6124293;23;19987;-77
2023/05/30 10:35:36;;;;;;;;;;;16.90;99.90;;;;;;6125109;23;20393;-75
2023/05/30 10:54:31;;;;;;;;;;;15.50;99.90;;;;;;6185680;23;19966;-74
2023/05/30 10:56:57;;;;;;;;;;;15.40;99.90;;;;;;6185197;23;19927;-75
2023/05/30 10:59:23;;;;;;;;;;;15.40;99.90;;;;;;6158627;23;20408;-74
2023/05/30 11:02:02;;;;;;;;;;;15.50;99.90;;;;;;6158315;23;19926;-74
2023/05/30 11:04:35;;;;;;;;;;;15.60;99.90;;;;;;6157936;23;19920;-73
2023/05/30 11:07:05;;;;;;;;;;;15.60;99.90;;;;;;6158828;23;20047;-73
2023/05/30 11:09:30;;;;;;;;;;;15.60;99.90;;;;;;6185527;23;19921;-74
2023/05/30 11:11:57;;;;;;;;;;;15.50;99.90;;;;;;6158270;23;19928;-72
2023/05/30 11:14:26;;;;;;;;;;;15.50;99.90;;;;;;6159512;23;19943;-73
2023/05/30 11:16:55;;;;;;;;;;;15.50;99.90;;;;;;6185903;23;19956;-72
2023/05/30 11:19:27;;;;;;;;;;;15.40;99.90;;;;;;6189383;23;19920;-73
2023/05/30 11:21:53;;;;;;;;;;;15.30;99.90;;;;;;6189214;23;19920;-73
2023/05/30 11:24:20;;;;;;;;;;;15.30;99.90;;;;;;6189714;23;19927;-73
2023/05/30 11:26:53;;;;;;;;;;;15.40;99.90;;;;;;6157970;23;19951;-74
2023/05/30 11:29:28;;;;;;;;;;;15.70;99.90;;;;;;6185601;23;20046;-74
2023/05/30 11:31:54;;;;;;;;;;;15.90;99.90;;;;;;6158022;23;19928;-74
2023/05/30 11:34:20;;;;;;;;;;;16.20;99.90;;;;;;6158001;23;19920;-74
2023/05/30 11:36:46;;;;;;;;;;;17.00;99.90;;;;;;6158815;23;20348;-73
2023/05/30 11:39:12;;;;;;;;;;;17.50;99.90;;;;;;6184568;23;20312;-73
2023/05/30 11:41:37;;;;;;;;;;;17.80;99.90;;;;;;6158296;23;19947;-75
2023/05/30 11:44:03;;;;;;;;;;;17.50;99.90;;;;;;6186918;23;20412;-75
2023/05/30 11:46:28;;;;;;;;;;;17.40;99.90;;;;;;6186457;23;19942;-75
2023/05/30 11:48:56;;;;;;;;;;;17.20;99.90;;;;;;6160404;23;19920;-74
2023/05/30 11:51:22;;;;;;;;;;;17.10;99.90;;;;;;6160361;23;20226;-74
2023/05/30 11:53:48;;;;;;;;;;;17.20;99.90;;;;;;6159506;23;20276;-74
2023/05/30 11:56:14;;;;;;;;;;;17.10;99.90;;;;;;6160758;23;19988;-74
2023/05/30 11:58:40;;;;;;;;;;;17.10;99.90;;;;;;6187071;23;19916;-74
2023/05/30 12:01:07;;;;;;;;;;;17.00;99.90;;;;;;6159243;23;19920;-74
2023/05/30 12:03:33;;;;;;;;;;;16.70;99.90;;;;;;6160494;23;19991;-74
2023/05/30 12:06:09;;;;;;;;;;;16.70;99.90;;;;;;6160124;23;19940;-74
2023/05/30 12:08:39;;;;;;;;;;;16.70;99.90;;;;;;6159756;23;19959;-74
2023/05/30 12:11:05;;;;;;;;;;;16.70;99.90;;;;;;6186633;23;19967;-74
2023/05/30 12:13:30;;;;;;;;;;;16.80;99.90;;;;;;6160463;23;19920;-74
2023/05/30 12:15:56;;;;;;;;;;;16.90;99.90;;;;;;6158380;23;19952;-74
2023/05/30 12:18:22;;;;;;;;;;;16.80;99.90;;;;;;6186390;23;19928;-74
2023/05/30 12:20:48;;;;;;;;;;;16.50;99.90;;;;;;6186298;23;19987;-74
2023/05/30 12:23:13;;;;;;;;;;;16.50;99.90;;;;;;6159735;23;20349;-75
2023/05/30 12:25:39;;;;;;;;;;;16.40;99.90;;;;;;6160151;23;19951;-73
2023/05/30 12:28:05;;;;;;;;;;;16.40;99.90;;;;;;6186049;23;19920;-73
2023/05/30 12:30:34;;;;;;;;;;;16.60;99.90;;;;;;6185567;23;19920;-72
2023/05/30 12:33:11;;;;;;;;;;;16.90;99.90;;;;;;6159444;23;19920;-73
2023/05/30 12:35:39;;;;;;;;;;;17.00;99.90;;;;;;6159793;23;19998;-72
2023/05/30 12:38:07;;;;;;;;;;;16.80;99.90;;;;;;6186295;23;19921;-73
2023/05/30 12:40:33;;;;;;;;;;;16.60;99.90;;;;;;6186017;23;19966;-71
2023/05/30 12:42:59;;;;;;;;;;;16.50;99.90;;;;;;6185348;23;20331;-71
2023/05/30 12:45:24;;;;;;;;;;;16.40;99.90;;;;;;6159849;23;19931;-72
2023/05/30 12:47:51;;;;;;;;;;;16.20;99.90;;;;;;6159075;23;19998;-71
2023/05/30 12:50:16;;;;;;;;;;;16.10;99.90;;;;;;6159523;23;19962;-72
2023/05/30 12:52:42;;;;;;;;;;;16.10;99.90;;;;;;6159922;23;20301;-72
2023/05/30 12:55:09;;;;;;;;;;;16.20;99.90;;;;;;6185807;23;19947;-72
2023/05/30 12:57:35;;;;;;;;;;;16.30;99.90;;;;;;6159198;23;19924;-72
2023/05/30 13:00:00;;;;;;;;;;;16.30;99.90;;;;;;6185557;23;19993;-73
2023/05/30 13:02:26;;;;;;;;;;;16.30;99.90;;;;;;6159485;23;19920;-73
2023/05/30 13:04:52;;;;;;;;;;;16.40;99.90;;;;;;6185468;23;20333;-75
2023/05/30 13:07:18;;;;;;;;;;;16.30;99.90;;;;;;6159669;23;19924;-76
2023/05/30 13:09:44;;;;;;;;;;;16.20;99.90;;;;;;6174243;23;19970;-71
2023/05/30 13:12:10;;;;;;;;;;;16.20;99.90;;;;;;6183251;23;20222;-72
2023/05/30 13:14:40;;;;;;;;;;;16.00;99.90;;;;;;6184112;23;19974;-72
2023/05/30 13:17:09;;;;;;;;;;;15.90;99.90;;;;;;6185809;23;19916;-73
2023/05/30 13:19:35;;;;;;;;;;;16.00;99.90;;;;;;6159795;23;19931;-75
2023/05/30 13:22:05;;;;;;;;;;;16.00;99.90;;;;;;6159061;23;19916;-73
2023/05/30 13:24:30;;;;;;;;;;;16.20;99.90;;;;;;6187098;23;19920;-72
2023/05/30 13:26:56;;;;;;;;;;;16.30;99.90;;;;;;6162301;23;20249;-72
2023/05/30 13:29:22;;;;;;;;;;;16.40;99.90;;;;;;6188672;23;20299;-72
2023/05/30 13:31:50;;;;;;;;;;;16.40;99.90;;;;;;6160826;23;19998;-74
2023/05/30 13:34:16;;;;;;;;;;;16.50;99.90;;;;;;6189013;23;19920;-74
2023/05/30 13:36:45;;;;;;;;;;;16.50;99.90;;;;;;6156925;23;20002;-73
2023/05/30 13:39:10;;;;;;;;;;;16.40;99.90;;;;;;6186634;23;19920;-75
2023/05/30 13:41:36;;;;;;;;;;;16.40;99.90;;;;;;6158800;23;20304;-72
2023/05/30 13:44:02;;;;;;;;;;;16.40;99.90;;;;;;6185742;23;20392;-73
2023/05/30 13:46:28;;;;;;;;;;;16.40;99.90;;;;;;6158676;23;19928;-76
2023/05/30 13:48:54;;;;;;;;;;;16.50;99.90;;;;;;6159288;23;19920;-73
2023/05/30 13:51:20;;;;;;;;;;;16.60;99.90;;;;;;6159423;23;19921;-72
2023/05/30 13:53:46;;;;;;;;;;;16.60;99.90;;;;;;6159012;23;19928;-74
2023/05/30 13:56:11;;;;;;;;;;;16.60;99.90;;;;;;6158686;23;19924;-73
2023/05/30 13:58:37;;;;;;;;;;;16.70;99.90;;;;;;6185355;23;19921;-75
2023/05/30 14:01:03;;;;;;;;;;;16.60;99.90;;;;;;6158579;23;19928;-77
2023/05/30 14:03:29;;;;;;;;;;;16.50;99.90;;;;;;6159622;23;19924;-79
2023/05/30 14:05:55;;;;;;;;;;;16.40;99.90;;;;;;6158982;23;20343;-78
2023/05/30 14:08:21;;;;;;;;;;;16.30;99.90;;;;;;6158907;23;19920;-79
2023/05/30 14:10:46;;;;;;;;;;;16.40;99.90;;;;;;6185006;23;19924;-79
2023/05/30 14:13:12;;;;;;;;;;;16.30;99.90;;;;;;6158159;23;19921;-78
2023/05/30 14:15:38;;;;;;;;;;;16.30;99.90;;;;;;6185403;23;19916;-75
2023/05/30 14:18:05;;;;;;;;;;;16.30;99.90;;;;;;6185459;23;19924;-75
2023/05/30 14:20:33;;;;;;;;;;;16.30;99.90;;;;;;6185775;23;19955;-77
2023/05/30 14:22:59;;;;;;;;;;;16.20;99.90;;;;;;6158110;23;20249;-72
2023/05/30 14:25:25;;;;;;;;;;;16.20;99.90;;;;;;6158519;23;19920;-73
2023/05/30 14:27:51;;;;;;;;;;;16.10;99.90;;;;;;6158631;23;19993;-74
2023/05/30 14:30:17;;;;;;;;;;;16.10;99.90;;;;;;6158410;23;20347;-72
2023/05/30 14:32:43;;;;;;;;;;;16.10;99.90;;;;;;6158473;23;19950;-72
2023/05/30 14:35:10;;;;;;;;;;;16.10;99.90;;;;;;6182904;23;19920;-76
2023/05/30 14:37:36;;;;;;;;;;;16.00;99.90;;;;;;6184041;23;19931;-74
2023/05/30 14:40:02;;;;;;;;;;;15.90;99.90;;;;;;6183864;23;20352;-73
2023/05/30 14:42:28;;;;;;;;;;;15.90;99.90;;;;;;6181772;23;20745;-73
2023/05/30 14:44:54;;;;;;;;;;;16.00;99.90;;;;;;6183697;23;19972;-75
2023/05/30 14:47:20;;;;;;;;;;;15.90;99.90;;;;;;6157198;23;19920;-73
2023/05/30 14:49:46;;;;;;;;;;;15.80;99.90;;;;;;6156899;23;20035;-74
2023/05/30 14:52:11;;;;;;;;;;;15.50;99.90;;;;;;6151214;23;19924;-78
2023/05/30 14:54:37;;;;;;;;;;;15.30;99.90;;;;;;6183134;23;19924;-76